メインページ
METAR-TAF:

METAR-TAF

空港 :

Ilo, ペルー

緯度: 17-41-45S, 経度: 071-20-35W, 海抜: 22m

現時点の気象観測

当レポートは10時間11分前の21:00(UTC)に作成
南東の風 11kt
気温 24°C
湿度 65%
気圧 1013 hPa
視程10km以上
1,500メートル以下は雲なし、積乱雲なし

METAR: SPLO 232100Z 14011KT CAVOK 24/17 Q1013 RMK TX 25.0 PP000

時間: 02:11 (07:11 UTC)

予報

当レポートは14時間11分前の17:00(UTC)に作成
予報は23日の 18時(UTC)から 24日の 18時(UTC)まで有効
南東の風 8kt
視程10km以上
1,500メートル以下は雲なし、積乱雲なし

TAF: SPLO 231700Z 2318/2418 14008KT CAVOK TX25/2319Z TN16/2411Z

4,000以上の空港の気象観測と天気予報(METAR報とTAF報)

利用可能な観測所は地図上に黄色い丸と赤い丸で示す。

丸の上にカーソルを重ねると観測所名を参照できる。

次にクリックすると気象観測と天気予報を参照できる。

マップの切り替え:黒色「×」印の緑ボタンをクリックして拡大、「-」印の緑ボタンをクリックして縮小、緑色の三角印をクリックして隣りの地図に切り替え


METAR-TAF: